Time;durP1;ratioP1;P1;durP2;ratioP2;P2;SDS_P1;SDS_P2;PMS_P1;PMS_P2;Temp;Humidity;BMP_temperature;BMP_pressure;BME280_temperature;BME280_humidity;BME280_pressure;Samples;Min_cycle;Max_cycle;Signal;HPM_P1;HPM_P2
2021/10/28 00:20:56;;;;;;;9.60;3.65;;;11.10;99.90;;;;;;20415192;28;20051;-44
2021/10/28 00:30:57;;;;;;;8.30;4.05;;;11.00;99.90;;;;;;20410015;29;20055;-44
2021/10/28 00:41:00;;;;;;;11.23;4.88;;;11.00;99.90;;;;;;20422520;28;20501;-44
2021/10/28 00:51:03;;;;;;;7.53;3.88;;;11.10;99.90;;;;;;20417151;28;20055;-44
2021/10/28 01:01:06;;;;;;;8.55;4.03;;;11.10;99.90;;;;;;20418862;28;20498;-43
2021/10/28 01:11:09;;;;;;;15.57;4.72;;;11.00;99.90;;;;;;20417179;28;20904;-44
2021/10/28 01:21:10;;;;;;;9.48;4.07;;;10.80;99.90;;;;;;20419806;28;20047;-44
2021/10/28 01:31:11;;;;;;;9.38;4.32;;;10.80;99.90;;;;;;20422400;28;20052;-44
2021/10/28 01:41:13;;;;;;;7.22;3.28;;;10.80;99.90;;;;;;20410304;29;20059;-44
2021/10/28 01:51:20;;;;;;;13.32;4.72;;;10.70;99.90;;;;;;20396771;28;20055;-44
2021/10/28 02:01:21;;;;;;;8.73;3.58;;;10.60;99.90;;;;;;20422230;29;20055;-44
2021/10/28 02:11:22;;;;;;;11.52;4.22;;;10.60;99.90;;;;;;20412128;28;20047;-44
2021/10/28 02:21:24;;;;;;;6.75;3.47;;;10.60;99.90;;;;;;20399516;29;20062;-44
2021/10/28 02:31:25;;;;;;;9.23;3.70;;;10.60;99.90;;;;;;20411968;28;20040;-44
2021/10/28 02:41:26;;;;;;;7.63;3.97;;;10.60;99.90;;;;;;20417928;28;20517;-44
2021/10/28 02:51:27;;;;;;;11.15;3.92;;;10.60;99.90;;;;;;20438166;28;20079;-44
2021/10/28 03:01:28;;;;;;;11.38;4.70;;;10.50;99.90;;;;;;20421979;28;20051;-44
2021/10/28 03:11:30;;;;;;;6.68;3.40;;;10.50;99.90;;;;;;20418585;28;20051;-44
2021/10/28 03:31:51;;;;;;;6.15;2.17;;;10.50;99.90;;;;;;20411690;28;20046;-44
2021/10/28 03:52:44;;;;;;;5.87;3.10;;;10.40;99.90;;;;;;20430358;28;20043;-44
2021/10/28 04:33:22;;;;;;;6.45;2.58;;;10.40;99.90;;;;;;20415581;28;20051;-44
2021/10/28 04:43:24;;;;;;;5.85;2.47;;;10.40;99.90;;;;;;20412023;28;20051;-44
2021/10/28 04:53:25;;;;;;;7.05;3.17;;;10.30;99.90;;;;;;20409138;28;20056;-44
2021/10/28 05:03:26;;;;;;;7.97;3.10;;;10.20;99.90;;;;;;20408813;29;20063;-44
2021/10/28 05:13:27;;;;;;;9.90;3.92;;;10.00;99.90;;;;;;20422142;28;20933;-44
2021/10/28 05:23:28;;;;;;;5.80;2.53;;;9.90;99.90;;;;;;20407631;28;20064;-44
2021/10/28 05:33:29;;;;;;;5.55;2.33;;;9.80;99.90;;;;;;20424991;29;20055;-44
2021/10/28 05:43:31;;;;;;;6.97;2.53;;;9.80;99.90;;;;;;20401194;28;20434;-44
2021/10/28 05:53:32;;;;;;;5.68;2.30;;;9.80;99.90;;;;;;20424576;28;20505;-44
2021/10/28 06:03:36;;;;;;;7.80;3.15;;;9.70;99.90;;;;;;20417680;28;20067;-44
2021/10/28 06:13:43;;;;;;;8.18;3.13;;;9.70;99.90;;;;;;20420174;28;20052;-44
2021/10/28 06:23:45;;;;;;;5.30;2.40;;;9.80;99.90;;;;;;20436298;28;20082;-43
2021/10/28 06:33:49;;;;;;;4.78;2.17;;;9.70;99.90;;;;;;20425802;28;20047;-43
2021/10/28 06:43:50;;;;;;;5.55;2.45;;;9.70;99.90;;;;;;20411073;28;20051;-43
2021/10/28 07:04:09;;;;;;;8.43;2.63;;;9.70;99.90;;;;;;20426841;28;20052;-43
2021/10/28 07:14:11;;;;;;;10.80;2.90;;;9.70;99.90;;;;;;20428052;28;20047;-43
2021/10/28 08:05:48;;;;;;;8.20;3.88;;;10.30;99.90;;;;;;20426314;28;20067;-43
2021/10/28 08:15:39;;;;;;;8.85;3.95;;;10.70;99.90;;;;;;20404101;28;20043;-44
2021/10/28 08:36:11;;;;;;;10.45;4.20;;;11.40;99.90;;;;;;20425949;28;20153;-44
2021/10/28 08:46:14;;;;;;;7.72;3.20;;;11.70;99.90;;;;;;20424774;28;20059;-43
2021/10/28 08:56:34;;;;;;;5.72;2.13;;;11.90;99.90;;;;;;20409302;28;20055;-43
2021/10/28 09:27:29;;;;;;;7.80;2.67;;;12.30;99.90;;;;;;20414020;28;20050;-44
2021/10/28 09:48:06;;;;;;;8.50;3.13;;;12.80;99.90;;;;;;20408836;29;20058;-44
2021/10/28 09:58:31;;;;;;;8.98;2.63;;;13.10;99.90;;;;;;20460172;28;20040;-43
2021/10/28 10:08:34;;;;;;;8.23;3.15;;;13.30;99.90;;;;;;20401800;28;20048;-44
2021/10/28 10:18:38;;;;;;;6.30;2.13;;;13.70;99.90;;;;;;20424706;28;20032;-44
2021/10/28 12:44:04;;;;;;;8.30;1.80;;;20.20;99.90;;;;;;20445491;28;20058;-44
2021/10/28 13:05:21;;;;;;;7.40;2.00;;;19.90;99.90;;;;;;20452381;28;20054;-44
2021/10/28 15:29:03;;;;;;;3.17;1.00;;;16.50;99.90;;;;;;20421777;28;20054;-44
2021/10/28 15:39:08;;;;;;;2.78;1.20;;;16.20;99.90;;;;;;20420829;28;20078;-44
2021/10/28 16:30:25;;;;;;;3.85;1.50;;;15.20;99.90;;;;;;20407422;28;20051;-44
2021/10/28 16:40:26;;;;;;;3.92;1.30;;;15.10;99.90;;;;;;20439072;28;20086;-44
2021/10/28 16:50:28;;;;;;;3.25;1.42;;;15.00;99.90;;;;;;20419896;28;20406;-44
2021/10/28 17:00:29;;;;;;;4.00;1.55;;;14.90;99.90;;;;;;20427458;28;20074;-44
2021/10/28 17:10:31;;;;;;;3.75;1.15;;;14.70;99.90;;;;;;20419861;28;20367;-44
2021/10/28 17:20:36;;;;;;;3.45;1.40;;;14.70;99.90;;;;;;20404229;28;20047;-44
2021/10/28 17:30:39;;;;;;;4.70;1.67;;;14.50;99.90;;;;;;20419851;28;20063;-44
2021/10/28 17:40:40;;;;;;;3.10;1.20;;;14.40;99.90;;;;;;20420236;28;20055;-44
2021/10/28 17:50:42;;;;;;;3.70;1.10;;;14.40;99.90;;;;;;20413874;28;20047;-44
2021/10/28 18:00:43;;;;;;;4.82;1.45;;;14.40;99.90;;;;;;20420527;29;20118;-44
2021/10/28 18:10:45;;;;;;;4.05;1.90;;;14.40;99.90;;;;;;20418871;28;20027;-44
2021/10/28 18:20:46;;;;;;;3.97;1.40;;;14.40;99.90;;;;;;20444095;28;20552;-44
2021/10/28 18:30:48;;;;;;;5.57;1.42;;;14.40;99.90;;;;;;20426614;29;20035;-44
2021/10/28 18:40:49;;;;;;;4.75;1.33;;;14.30;99.90;;;;;;20417944;28;20051;-44
2021/10/28 18:50:51;;;;;;;5.20;1.52;;;14.20;99.90;;;;;;20438411;28;20536;-44
2021/10/28 19:00:52;;;;;;;5.53;1.55;;;14.20;99.90;;;;;;20449969;28;20067;-44
2021/10/28 19:10:53;;;;;;;8.68;1.58;;;14.10;99.90;;;;;;20444656;28;20051;-44
2021/10/28 19:20:54;;;;;;;4.40;1.42;;;14.00;99.90;;;;;;20435930;28;20058;-43
2021/10/28 19:31:00;;;;;;;2.92;1.40;;;14.00;99.90;;;;;;20429716;28;20054;-43
2021/10/28 19:41:15;;;;;;;7.45;1.88;;;13.90;99.90;;;;;;20379738;28;20052;-43
2021/10/28 19:51:17;;;;;;;2.40;1.27;;;13.80;99.90;;;;;;20326114;29;20039;-44
2021/10/28 20:21:40;;;;;;;4.90;1.50;;;13.50;99.90;;;;;;20300693;29;20070;-44
2021/10/28 20:31:41;;;;;;;4.00;1.88;;;13.40;99.90;;;;;;20332185;29;20047;-43
2021/10/28 20:41:42;;;;;;;5.00;1.88;;;13.30;99.90;;;;;;20372995;29;20513;-44
2021/10/28 20:51:43;;;;;;;5.60;1.85;;;13.10;99.90;;;;;;20409121;28;20044;-44
2021/10/28 21:01:49;;;;;;;5.28;1.83;;;13.00;99.90;;;;;;20429738;29;20871;-44
2021/10/28 21:11:50;;;;;;;3.92;1.58;;;13.00;99.90;;;;;;20418230;28;20039;-44
2021/10/28 21:21:51;;;;;;;5.88;2.10;;;12.90;99.90;;;;;;20421591;28;20401;-44
2021/10/28 21:31:53;;;;;;;6.25;2.22;;;12.90;99.90;;;;;;20431226;28;20051;-44
2021/10/28 21:41:54;;;;;;;4.07;2.20;;;12.80;99.90;;;;;;20374723;28;20552;-44
2021/10/28 21:51:57;;;;;;;5.68;1.77;;;12.80;99.90;;;;;;20318427;28;20071;-44
2021/10/28 22:02:06;;;;;;;5.68;1.92;;;12.80;99.90;;;;;;20332634;28;20060;-44
2021/10/28 22:32:42;;;;;;;6.07;2.80;;;12.50;99.90;;;;;;20327992;28;20040;-43
2021/10/28 22:42:44;;;;;;;4.50;1.80;;;12.30;99.90;;;;;;20387482;28;20051;-43
2021/10/28 22:52:47;;;;;;;4.80;2.15;;;12.20;99.90;;;;;;20435507;28;20054;-44
2021/10/28 23:03:03;;;;;;;9.07;2.33;;;12.10;99.90;;;;;;20420238;28;20063;-44
2021/10/28 23:23:21;;;;;;;5.20;2.30;;;11.90;99.90;;;;;;20435989;28;20047;-43
2021/10/28 23:33:23;;;;;;;6.93;2.72;;;11.90;99.90;;;;;;20453034;28;20043;-43
2021/10/28 23:43:25;;;;;;;7.32;2.42;;;11.80;99.90;;;;;;20441249;28;20051;-44
2021/10/28 23:53:26;;;;;;;4.28;2.13;;;11.70;99.90;;;;;;20416714;28;20046;-44
